Terminal Aerodrome Forecast
Issued by NWS

Home | Current Version | Previous Version | Text Only | Print | Product List | Glossary Off
Versions: 1 2 3 4 5 6 7 8 9 10 11 12 13

000
FTUS43 KBIS 151100
TAFDIK
TAF
KDIK 151136Z 1512/1612 20008KT P6SM SKC
     FM151500 22010KT P6SM FEW230
     FM160300 18005KT P6SM SKC=

USA.gov is the U.S. government's official web portal to all federal, state and local government web resources and services.